Weather observations for the past three days for
Decatur, Pryor Field
Metric (Imperial)
Date Time (cdt) Wind (kph) Vis. (km) Weather Sky Cond. Temperature (ºC) Relative Humidity Wind Chill (°C) Heat Index (°C) Pressure Precipitation (cm)
Air Dwpt 6 hour altimeter (cm) sea level (mb) 1 hr 3 hr 6 hr
Max. Min.
02 13:53 N 24 G 43 16.09 A Few Clouds FEW080 20.6 2.2 30% 76.25 1016.0
02 12:53 N 22 16.09 A Few Clouds FEW075 20 2.2 20 11.1 31% 76.28 1016.4
02 11:53 N 17 G 35 16.09 Fair CLR 18.9 2.8 34% 76.3 1016.9
02 10:53 N 22 16.09 Fair CLR 17.8 2.8 37% 76.33 1017.4
02 09:53 N 20 16.09 Fair CLR 15.6 2.8 42% 76.3 1017.0
02 08:53 N 19 16.09 Fair CLR 15 3.9 48% 76.28 1016.6
02 07:53 N 17 16.09 Fair CLR 12.8 4.4 57% 76.28 1016.5
02 06:53 N 9 16.09 Fair CLR 11.1 3.9 13.9 10.6 61% 76.23 1015.9
02 05:53 N 11 16.09 Fair CLR 10.6 3.9 64% 76.17 1015.3
02 04:53 N 11 16.09 Fair CLR 11.1 3.9 61% 76.15 1014.9
02 03:53 N 7 16.09 A Few Clouds FEW060 12.2 3.3 55% 76.15 1014.9
02 02:53 N 17 16.09 Partly Cloudy SCT055 12.8 2.8 51% 76.12 1014.6
02 01:53 N 20 16.09 Partly Cloudy SCT050 13.3 2.8 49% 76.23 1015.8
02 00:53 N 17 16.09 Overcast OVC050 13.9 2.2 17.8 13.9 45% 76.23 1015.9
01 23:53 N 15 16.09 A Few Clouds FEW050 14.4 2.2 44% 76.17 1015.2
01 22:53 N 15 16.09 Fair CLR 14.4 3.3 48% 76.15 1015.0
01 21:53 N 19 16.09 Fair CLR 15.6 7.2 58% 76.2 1015.5
01 20:53 N 19 16.09 Fair CLR 16.7 8.9 60% 76.12 1014.5
01 18:53 Calm 16.09 Fair CLR 17.8 11.1 20.6 17.8 65% 76.05 1013.5
01 17:53 Calm 16.09 Fair CLR 18.3 11.7 66% 76.02 1013.4
01 16:53 NE 7 16.09 Fair CLR 20 7.8 45% 75.97 1012.6
01 15:53 N 11 16.09 Fair CLR 20 6.7 42% 76.05 1013.5
01 14:53 N 7 16.09 Fair CLR 19.4 6.1 42% 76.15 1014.8
01 13:53 NW 9 16.09 Fair CLR 18.9 6.1 43% 76.2 1015.5
01 12:53 N 13 16.09 Fair CLR 18.3 6.1 18.9 10 45% 76.17 1015.2
01 11:53 N 20 16.09 Fair CLR 18.3 4.4 40% 76.25 1016.1
01 10:53 N 7 16.09 Fair CLR 17.2 6.7 50% 76.2 1015.7
01 09:53 Calm 16.09 Fair CLR 15.6 7.8 60% 76.25 1016.1
01 08:53 Calm 16.09 Fair CLR 13.9 7.2 64% 76.23 1015.8
01 07:53 N 11 16.09 Fair CLR 12.2 7.2 72% 76.17 1015.4
01 06:53 N 6 16.09 Fair CLR 10 7.8 12.8 8.9 86% 76.17 1015.5
01 05:53 Calm 16.09 Fair CLR 9.4 7.2 86% 76.1 1014.1
01 04:53 N 6 16.09 Fair CLR 11.1 6.1 72% 76.1 1014.1
01 03:53 N 6 16.09 Fair CLR 10 7.8 86% 76.1 1014.2
01 02:53 Calm 16.09 Fair CLR 11.1 6.1 72% 76.07 1013.9
01 01:53 N 9 16.09 A Few Clouds FEW110 12.2 5.6 64% 76.1 1014.2
01 00:53 N 7 16.09 Fair CLR 12.8 6.7 17.2 12.8 67% 76.12 1014.5
30 23:53 N 11 16.09 Fair CLR 13.3 6.7 65% 76.12 1014.7
30 22:53 N 6 16.09 Fair CLR 13.3 8.3 72% 76.15 1015.0
30 21:53 NE 7 16.09 Fair CLR 13.9 7.2 64% 76.17 1015.1
30 20:53 N 6 16.09 Fair CLR 14.4 7.2 62% 76.15 1014.8
30 19:53 NE 9 16.09 Fair CLR 15.6 5 50% 76.07 1013.9
30 18:53 N 13 16.09 Fair CLR 17.2 5.6 20.6 17.2 47% 76.07 1014.0
30 17:53 N 13 16.09 Fair CLR 18.9 4.4 39% 76.07 1013.7
30 16:53 NE 11 G 28 16.09 Fair CLR 20 3.3 33% 76.05 1013.6
30 15:53 N 19 16.09 Fair CLR 20 5 38% 76.1 1014.0
30 14:53 N 13 16.09 Fair CLR 20 4.4 36% 76.12 1014.6
30 13:53 N 9 G 28 16.09 Fair CLR 18.9 4.4 39% 76.17 1015.1
30 12:53 N 17 G 33 16.09 Fair CLR 18.3 5 18.9 12.8 42% 76.17 1015.0
30 11:53 N 15 G 31 16.09 Fair CLR 17.8 5.6 45% 76.2 1015.5
30 10:53 N 28 16.09 Fair CLR 17.8 6.7 48% 76.17 1015.3
30 09:53 N 26 16.09 Fair CLR 16.1 6.1 52% 76.17 1015.0
30 08:53 N 26 G 41 16.09 Fair CLR 15.6 7.2 58% 76.15 1014.9
30 07:53 N 17 16.09 Fair CLR 13.9 7.8 67% 76.15 1014.9
30 06:53 N 19 16.09 Partly Cloudy SCT120 12.8 8.3 16.7 12.8 74% 76.12 1014.3 0.69
30 05:53 N 19 16.09 Overcast OVC120 13.3 8.9 75% 76.05 1013.5
30 04:53 N 13 16.09 Fair CLR 13.3 10.6 84% 76.02 1013.0
30 03:53 N 9 16.09 Fair CLR 14.4 11.7 84% 76 1012.6 0.69
30 02:53 NE 7 16.09 Mostly Cloudy BKN080 BKN100 15 13.9 93% 76 1012.6 0.28
30 01:53 N 9 6.44 Rain Fog/Mist FEW033 SCT055 OVC075 15.6 14.4 93% 76.05 1013.3 0.41
30 00:53 N 7 16.09 Overcast OVC100 16.7 13.9 22.2 16.7 84% 76.05 1013.4
29 23:53 N 17 16.09 Thunderstorm in Vicinity Light Rain FEW075 BKN110 17.8 12.8 73% 76 1012.6
29 22:53 N 11 16.09 Mostly Cloudy SCT039 BKN050 BKN110 18.3 13.3 73% 75.97 1012.5
29 21:53 NE 11 16.09 Overcast OVC039 18.9 14.4 75% 76.02 1013.0
29 20:53 N 15 16.09 Overcast OVC040 20 15.6 76% 76 1012.7
29 19:53 N 24 16.09 Mostly Cloudy BKN040 20.6 15.6 73% 75.92 1011.5
29 18:53 N 15 0.00 NULL NULL 22.2 17.2 27.2 22.2 73% 75.84 1010.7
29 17:53 N 15 16.09 A Few Clouds FEW044 23.3 17.2 69% 75.84 1010.7
29 16:53 NW 19 16.09 Mostly Cloudy BKN046 25 17.2 62% 26 75.84 1010.6
29 15:53 NW 17 16.09 Partly Cloudy SCT037 26.1 17.8 60% 27 75.87 1010.8
29 14:53 NW 17 16.09 Fair CLR 26.7 17.8 58% 28 75.87 1011.0
Date Time (cdt) Wind (kph) Vis. (km) Weather Sky Cond. Air Dwpt Max. Min. Relative Humidity Wind Chill (°C) Heat Index (°C) altimeter (cm) sea level (mb) 1 hr 3 hr 6 hr
6 hour
Temperature (ºC) Pressure Precipitation (cm)